• Join FlightAware (Why Join?)
  • Login
  • US Flag 
08:23AM EDT


 

Airport Tracker/Info


-or-


 

Live Flight TrackerFlight Track Log ✈ KAL1335 ✈ 15-Sep-2013 ✈ RKSS / GMP - RKJY / RSU

Flight Track Log - Related Links

Times and Time Zones

All times are in EDT time to prevent confusion due to time zone crossing. See the KAL1335 flight status page for this flight to view local times or setup timezone preferences in your user account.

Time Position Orientation Groundspeed Altitude Reporting Facility
EDT Latitude Longitude Course Direction KTS MPH feet Rate Location/Type
12:29AM 37.1193 126.9278 166° South  Level Estimated
12:30AM 37.0315 126.9551 166° South  Level Estimated
12:31AM 36.9436 126.9823 166° South  Level Estimated
12:32AM 36.8558 127.0095 166° South  Level Estimated
12:33AM 36.7680 127.0365 166° South  Level Estimated
12:34AM 36.6801 127.0635 166° South  Level Estimated
12:35AM 36.5923 127.0905 166° South  Level Estimated
12:36AM 36.5044 127.1174 166° South  Level Estimated
12:37AM 36.4165 127.1442 166° South  Level Estimated
12:38AM 36.3287 127.1710 166° South  Level Estimated
12:39AM 36.2408 127.1977 166° South  Level Estimated
12:40AM 36.1529 127.2243 166° South  Level Estimated
12:41AM 36.0650 127.2509 166° South  Level Estimated
12:42AM 35.9771 127.2775 166° South  Level Estimated
12:43AM 35.8892 127.3039 166° South  Level Estimated
12:44AM 35.8013 127.3303 166° South  Level Estimated
12:45AM 35.7134 127.3567 166° South  Level Estimated
12:46AM 35.6255 127.3830 166° South  Level Estimated
12:47AM 35.5346 127.4101 166° South  Level Estimated
12:48AM 35.4437 127.4371 166° South  Level Estimated
12:49AM 35.3529 127.4641 166° South  Level Estimated
12:50AM 35.2620 127.4911 166° South  Level Estimated
12:51AM 35.1711 127.5179 166° South  Level Estimated
12:52AM 35.0802 127.5447 166° South  Level Estimated
12:53AM 34.9893 127.5715 166° South  Level Estimated
12:54AM 34.8984 127.5982 166° South  Level Estimated
12:55AM 34.8398 127.6153 166° South  Level Estimated
12:56AM 34.8398 127.6153 180° South  Level Estimated
12:57AM 34.8398 127.6153 180° South  Level Estimated
12:58AM 34.8398 127.6153 180° South  Level Estimated
12:59AM 34.8398 127.6153 180° South  Level Estimated
01:00AM 34.8398 127.6153 180° South  Level Estimated
01:01AM 34.8398 127.6153 180° South  Level Estimated
01:02AM 34.8398 127.6153 180° South  Level Estimated
01:03AM 34.8398 127.6153 180° South  Level Estimated